createdAt,value
2023-05-03T00:01:55.606Z,44.95
2023-05-03T00:04:27.276Z,44.87
2023-05-03T00:06:59.393Z,44.83
2023-05-03T00:09:31.477Z,44.98
2023-05-03T00:12:06.181Z,44.90
2023-05-03T00:14:37.839Z,44.86
2023-05-03T00:17:09.977Z,44.88
2023-05-03T00:19:42.868Z,44.81
2023-05-03T00:22:14.653Z,44.66
2023-05-03T00:24:46.470Z,44.68
2023-05-03T00:27:19.410Z,44.41
2023-05-03T00:29:52.681Z,44.40
2023-05-03T00:32:24.271Z,44.20
2023-05-03T00:34:56.833Z,44.06
2023-05-03T00:37:30.034Z,44.04
2023-05-03T00:40:02.251Z,43.82
2023-05-03T00:42:36.987Z,43.66
2023-05-03T00:45:09.529Z,43.56
2023-05-03T00:47:41.306Z,43.61
2023-05-03T00:50:13.005Z,43.72
2023-05-03T00:52:44.771Z,43.69
2023-05-03T00:55:16.552Z,43.75
2023-05-03T00:57:48.170Z,43.84
2023-05-03T01:00:20.553Z,43.90
2023-05-03T01:02:52.948Z,43.97
2023-05-03T01:05:24.656Z,44.12
2023-05-03T01:08:16.339Z,44.02
2023-05-03T01:10:50.817Z,44.23
2023-05-03T01:13:37.678Z,44.42
2023-05-03T01:16:21.509Z,44.45
2023-05-03T01:18:53.424Z,44.61
2023-05-03T01:21:26.303Z,44.66
2023-05-03T01:24:19.586Z,44.81
2023-05-03T01:26:51.496Z,44.96
2023-05-03T01:29:23.157Z,45.02
2023-05-03T01:31:58.632Z,45.02
2023-05-03T01:34:36.553Z,45.15
2023-05-03T01:37:08.226Z,45.28
2023-05-03T01:39:49.052Z,45.40
2023-05-03T01:42:20.702Z,45.50
2023-05-03T01:44:52.563Z,45.51
2023-05-03T01:47:24.209Z,45.56
2023-05-03T01:49:56.355Z,45.66
2023-05-03T01:52:28.058Z,45.76
2023-05-03T01:55:00.175Z,46.02
2023-05-03T01:57:31.784Z,46.05
2023-05-03T02:00:04.575Z,46.02
2023-05-03T02:02:38.659Z,46.16
2023-05-03T02:05:11.644Z,46.20
2023-05-03T02:07:43.628Z,46.33
2023-05-03T02:10:16.425Z,46.33
2023-05-03T02:12:48.125Z,46.31
2023-05-03T02:15:21.548Z,46.48
2023-05-03T02:17:54.376Z,46.49
2023-05-03T02:20:27.388Z,46.47
2023-05-03T02:22:59.653Z,46.55
2023-05-03T02:25:31.993Z,46.65
2023-05-03T02:28:03.889Z,46.77
2023-05-03T02:30:36.515Z,46.76
2023-05-03T02:33:08.406Z,46.92
2023-05-03T02:35:40.727Z,47.09
2023-05-03T02:38:12.307Z,47.28
2023-05-03T02:40:44.088Z,47.37
2023-05-03T02:43:15.950Z,47.44
2023-05-03T02:45:47.720Z,47.56
2023-05-03T02:48:20.621Z,47.76
2023-05-03T02:50:54.606Z,47.94
2023-05-03T02:53:26.937Z,48.00
2023-05-03T02:55:59.105Z,48.16
2023-05-03T02:58:31.136Z,48.28
2023-05-03T03:01:03.332Z,48.41
2023-05-03T03:03:35.523Z,48.37
2023-05-03T03:06:07.452Z,48.47
2023-05-03T03:08:39.535Z,48.56
2023-05-03T03:11:11.616Z,48.53
2023-05-03T03:13:43.574Z,48.64
2023-05-03T03:16:15.604Z,48.67
2023-05-03T03:18:47.478Z,48.77
2023-05-03T03:21:19.452Z,48.85
2023-05-03T03:23:51.540Z,48.81
2023-05-03T03:26:23.265Z,48.93
2023-05-03T03:28:55.055Z,48.94
2023-05-03T03:31:27.360Z,49.05
2023-05-03T03:33:59.159Z,49.00
2023-05-03T03:36:31.766Z,49.05
2023-05-03T03:39:04.146Z,49.02
2023-05-03T03:41:37.048Z,49.07
2023-05-03T03:44:09.310Z,49.10
2023-05-03T03:46:42.006Z,49.00
2023-05-03T03:49:13.906Z,49.04
2023-05-03T03:51:45.967Z,49.05
2023-05-03T03:54:18.217Z,49.03
2023-05-03T03:56:51.173Z,49.02
2023-05-03T03:59:23.090Z,48.89
2023-05-03T04:01:55.231Z,48.92
2023-05-03T04:04:28.353Z,48.83
2023-05-03T04:07:00.513Z,48.96
2023-05-03T04:09:33.596Z,48.88
2023-05-03T04:12:05.883Z,48.97
2023-05-03T04:14:39.501Z,48.88
2023-05-03T04:17:12.786Z,48.58
2023-05-03T04:19:44.892Z,48.56
2023-05-03T04:22:17.099Z,48.41
2023-05-03T04:24:48.982Z,48.22
2023-05-03T04:27:20.647Z,48.00
2023-05-03T04:30:00.267Z,47.56
2023-05-03T04:32:34.100Z,47.49
2023-05-03T04:35:10.876Z,47.22
2023-05-03T04:37:45.694Z,46.80
2023-05-03T04:40:19.827Z,46.63
2023-05-03T04:42:53.319Z,46.03
2023-05-03T04:45:26.955Z,45.80
2023-05-03T04:47:58.952Z,45.23
2023-05-03T04:50:30.702Z,45.13
2023-05-03T04:53:02.909Z,44.52
2023-05-03T04:55:37.043Z,44.23
2023-05-03T04:58:08.975Z,43.72
2023-05-03T05:00:43.239Z,43.14
2023-05-03T05:03:17.045Z,43.18
2023-05-03T05:05:48.813Z,42.87
2023-05-03T05:08:21.826Z,42.80
2023-05-03T05:10:55.069Z,42.20
2023-05-03T05:13:28.291Z,41.83
2023-05-03T05:16:01.024Z,41.51
2023-05-03T05:18:33.087Z,41.32
2023-05-03T05:21:06.853Z,40.99
2023-05-03T05:23:39.113Z,40.88
2023-05-03T05:26:11.044Z,40.85
2023-05-03T05:28:43.272Z,40.63
2023-05-03T05:31:15.709Z,40.30
2023-05-03T05:33:47.288Z,40.15
2023-05-03T05:36:19.031Z,40.12
2023-05-03T05:39:00.004Z,39.74
2023-05-03T05:41:32.537Z,39.25
2023-05-03T05:44:04.640Z,38.79
2023-05-03T05:46:36.950Z,38.75
2023-05-03T05:49:08.809Z,38.45
2023-05-03T05:51:41.492Z,37.50
2023-05-03T05:54:14.403Z,37.26
2023-05-03T05:56:46.746Z,37.22
2023-05-03T05:59:18.672Z,36.60
2023-05-03T06:01:50.503Z,35.94
2023-05-03T06:04:23.809Z,35.93
2023-05-03T06:06:55.829Z,35.88
2023-05-03T06:09:27.509Z,35.90
2023-05-03T06:12:01.336Z,35.81
2023-05-03T06:14:34.999Z,35.65
2023-05-03T06:17:07.375Z,35.64
2023-05-03T06:19:40.373Z,35.42
2023-05-03T06:22:13.151Z,35.53
2023-05-03T06:24:45.298Z,35.64
2023-05-03T06:27:17.568Z,35.69
2023-05-03T06:29:50.258Z,34.82
2023-05-03T06:32:24.869Z,34.49
2023-05-03T06:34:58.432Z,34.04
2023-05-03T06:37:30.429Z,33.22
2023-05-03T06:40:02.373Z,33.39
2023-05-03T06:42:34.424Z,33.75
2023-05-03T06:45:13.775Z,33.48
2023-05-03T06:47:46.166Z,32.19
2023-05-03T06:50:19.470Z,31.92
2023-05-03T06:52:52.131Z,31.77
2023-05-03T06:55:23.641Z,31.74
2023-05-03T06:57:55.378Z,31.21
2023-05-03T07:00:27.543Z,30.99
2023-05-03T07:02:59.488Z,31.07
2023-05-03T07:05:31.674Z,30.81
2023-05-03T07:08:03.813Z,30.54
2023-05-03T07:10:36.687Z,29.27
2023-05-03T07:13:08.557Z,28.57
2023-05-03T07:15:40.858Z,28.70
2023-05-03T07:18:12.963Z,28.25
2023-05-03T07:20:44.816Z,27.78
2023-05-03T07:23:16.885Z,27.48
2023-05-03T07:25:48.819Z,27.33
2023-05-03T07:28:20.725Z,26.93
2023-05-03T07:30:52.804Z,26.09
2023-05-03T07:33:24.763Z,25.82
2023-05-03T07:35:56.730Z,25.86
2023-05-03T07:38:28.432Z,24.54
2023-05-03T07:41:00.215Z,24.12
2023-05-03T07:43:32.261Z,24.65
2023-05-03T07:46:03.959Z,24.68
2023-05-03T07:48:36.225Z,24.66
2023-05-03T07:51:08.057Z,25.12
2023-05-03T07:53:40.462Z,25.38
2023-05-03T07:56:12.533Z,25.27
2023-05-03T07:58:46.692Z,25.01
2023-05-03T08:01:17.865Z,25.30
2023-05-03T08:03:52.530Z,25.25
2023-05-03T08:06:24.988Z,25.52
2023-05-03T08:08:56.886Z,25.68
2023-05-03T08:11:29.306Z,26.07
2023-05-03T08:14:01.172Z,26.64
2023-05-03T08:16:33.113Z,26.87
2023-05-03T08:19:05.140Z,27.09
2023-05-03T08:21:38.297Z,26.86
2023-05-03T08:24:13.673Z,27.81
2023-05-03T08:26:46.410Z,27.15
2023-05-03T08:29:18.198Z,26.87
2023-05-03T08:31:50.094Z,26.81
2023-05-03T08:34:22.558Z,27.02
2023-05-03T08:36:54.688Z,26.29
2023-05-03T08:39:31.346Z,26.70
2023-05-03T08:42:04.821Z,27.37
2023-05-03T08:44:42.198Z,27.82
2023-05-03T08:47:16.491Z,27.32
2023-05-03T08:49:48.172Z,26.78
2023-05-03T08:52:21.275Z,27.38
2023-05-03T08:54:53.028Z,27.81
2023-05-03T08:57:26.009Z,28.00
2023-05-03T08:59:59.362Z,28.69
2023-05-03T09:02:33.290Z,28.05
2023-05-03T09:05:08.212Z,28.96
2023-05-03T09:07:40.461Z,28.41
2023-05-03T09:10:24.798Z,28.25
2023-05-03T09:13:01.626Z,28.62
2023-05-03T09:15:33.728Z,27.92
2023-05-03T09:18:18.064Z,27.11
2023-05-03T09:20:52.788Z,27.16
2023-05-03T09:23:31.403Z,27.11
2023-05-03T09:26:03.414Z,27.75
2023-05-03T09:28:44.348Z,26.77
2023-05-03T09:31:16.317Z,27.98
2023-05-03T09:33:47.909Z,27.04
2023-05-03T09:36:19.786Z,27.29
2023-05-03T09:38:52.594Z,26.76
2023-05-03T09:41:31.136Z,27.69
2023-05-03T09:44:03.204Z,27.66
2023-05-03T09:46:35.324Z,27.55
2023-05-03T09:49:08.006Z,27.40
2023-05-03T09:51:41.763Z,27.58
2023-05-03T09:54:13.528Z,27.25
2023-05-03T09:56:45.239Z,27.60
2023-05-03T09:59:17.271Z,27.42
2023-05-03T10:01:49.238Z,27.79
2023-05-03T10:04:22.379Z,27.45
2023-05-03T10:06:54.917Z,28.03
2023-05-03T10:09:39.977Z,26.90
2023-05-03T10:12:16.988Z,26.66
2023-05-03T10:14:49.561Z,26.77
2023-05-03T10:17:32.321Z,27.30
2023-05-03T10:20:00.564Z,27.38
2023-05-03T10:22:32.530Z,26.56
2023-05-03T10:25:08.014Z,26.38
2023-05-03T10:27:48.276Z,26.12
2023-05-03T10:30:36.117Z,26.43
2023-05-03T10:33:17.467Z,26.74
2023-05-03T10:35:53.235Z,27.09
2023-05-03T10:38:26.211Z,27.32
2023-05-03T10:40:59.240Z,28.25
2023-05-03T10:43:34.139Z,27.09
2023-05-03T10:46:07.801Z,27.96
2023-05-03T10:48:39.556Z,28.35
2023-05-03T10:51:34.032Z,27.49
2023-05-03T10:54:06.014Z,27.13
2023-05-03T10:56:48.666Z,27.65
2023-05-03T10:59:21.151Z,27.24
2023-05-03T11:01:53.858Z,27.17
2023-05-03T11:04:31.048Z,26.72
2023-05-03T11:07:02.556Z,27.18
2023-05-03T11:09:35.305Z,26.97
2023-05-03T11:12:08.717Z,26.43
2023-05-03T11:14:40.343Z,26.66
2023-05-03T11:17:12.278Z,26.45
2023-05-03T11:19:45.378Z,28.10
2023-05-03T11:22:17.167Z,26.38
2023-05-03T11:24:50.851Z,25.91
2023-05-03T11:27:26.563Z,25.74
2023-05-03T11:29:59.373Z,25.60
2023-05-03T11:32:31.447Z,26.13
2023-05-03T11:35:05.561Z,27.60
2023-05-03T11:37:37.597Z,28.16
2023-05-03T11:40:13.681Z,27.58
2023-05-03T11:42:59.825Z,26.70
2023-05-03T11:45:33.360Z,26.62
2023-05-03T11:48:05.186Z,27.33
2023-05-03T11:50:55.309Z,26.86
2023-05-03T11:53:28.135Z,27.00
2023-05-03T11:56:00.032Z,27.28
2023-05-03T11:58:32.139Z,26.39
2023-05-03T12:01:05.874Z,26.49
2023-05-03T12:03:38.338Z,26.63
2023-05-03T12:06:11.954Z,27.88
2023-05-03T12:08:45.232Z,27.04
2023-05-03T12:11:18.270Z,26.37
2023-05-03T12:13:58.987Z,26.63
2023-05-03T12:16:34.262Z,26.82
2023-05-03T12:19:08.810Z,27.26
2023-05-03T12:24:24.798Z,27.10
2023-05-03T12:26:57.886Z,27.13
2023-05-03T12:29:34.682Z,27.50
2023-05-03T12:32:06.080Z,28.24
2023-05-03T12:34:40.880Z,28.70
2023-05-03T12:37:12.220Z,28.94
2023-05-03T12:39:46.118Z,28.57
2023-05-03T12:42:19.496Z,27.91
2023-05-03T12:44:53.443Z,28.58
2023-05-03T12:47:28.837Z,28.83
2023-05-03T12:49:59.985Z,28.73
2023-05-03T12:52:38.023Z,28.99
2023-05-03T12:55:11.330Z,28.40
2023-05-03T12:57:45.835Z,27.82
2023-05-03T13:00:24.925Z,28.25
2023-05-03T13:10:34.565Z,29.05
2023-05-03T13:13:06.890Z,29.24
2023-05-03T13:15:39.571Z,29.32
2023-05-03T13:18:13.954Z,29.30
2023-05-03T13:20:45.986Z,29.62
2023-05-03T13:23:17.819Z,29.41
2023-05-03T13:25:50.927Z,30.05
2023-05-03T13:28:24.514Z,29.05
2023-05-03T13:30:57.505Z,29.52
2023-05-03T13:33:29.465Z,29.42
2023-05-03T13:36:01.180Z,29.94
2023-05-03T13:38:33.953Z,30.55
2023-05-03T13:41:10.436Z,29.78
2023-05-03T13:43:42.595Z,29.13
2023-05-03T13:46:14.602Z,29.31
2023-05-03T13:48:46.589Z,29.67
2023-05-03T13:51:18.440Z,29.77
2023-05-03T13:53:50.164Z,30.34
2023-05-03T13:56:21.875Z,30.88
2023-05-03T13:58:55.579Z,30.40
2023-05-03T14:01:28.677Z,30.40
2023-05-03T14:04:00.797Z,30.36
2023-05-03T14:06:33.609Z,30.89
2023-05-03T14:09:06.526Z,30.93
2023-05-03T14:11:39.596Z,30.92
2023-05-03T14:14:11.598Z,31.58
2023-05-03T14:16:43.521Z,31.31
2023-05-03T14:19:17.089Z,31.12
2023-05-03T14:21:50.780Z,31.65
2023-05-03T14:24:22.421Z,31.36
2023-05-03T14:26:54.356Z,31.36
2023-05-03T14:29:26.263Z,31.74
2023-05-03T14:31:58.721Z,31.74
2023-05-03T14:34:30.459Z,32.05
2023-05-03T14:37:04.427Z,32.24
2023-05-03T14:39:36.649Z,32.22
2023-05-03T14:42:08.502Z,32.11
2023-05-03T14:44:40.203Z,32.59
2023-05-03T14:47:12.374Z,33.48
2023-05-03T14:49:44.035Z,33.08
2023-05-03T14:52:16.218Z,33.41
2023-05-03T14:54:48.051Z,32.95
2023-05-03T14:57:20.193Z,32.85
2023-05-03T14:59:51.827Z,32.96
2023-05-03T15:02:24.288Z,33.08
2023-05-03T15:04:56.216Z,33.12
2023-05-03T15:07:28.256Z,33.37
2023-05-03T15:12:44.880Z,34.21
2023-05-03T15:15:16.899Z,33.63
2023-05-03T15:17:48.851Z,33.39
2023-05-03T15:20:20.585Z,33.53
2023-05-03T15:22:52.369Z,33.64
2023-05-03T15:25:24.319Z,33.79
2023-05-03T15:27:56.808Z,33.65
2023-05-03T15:33:12.146Z,34.30
2023-05-03T15:35:44.394Z,34.57
2023-05-03T15:38:17.924Z,34.92
2023-05-03T15:40:49.600Z,35.40
2023-05-03T15:43:21.610Z,35.28
2023-05-03T15:45:53.749Z,35.03
2023-05-03T15:48:25.845Z,34.48
2023-05-03T15:50:57.738Z,34.73
2023-05-03T15:53:29.915Z,35.43
2023-05-03T15:56:02.656Z,35.59
2023-05-03T15:58:34.585Z,35.34
2023-05-03T16:01:06.641Z,35.04
2023-05-03T16:03:38.507Z,35.77
2023-05-03T16:06:10.864Z,36.28
2023-05-03T16:08:42.926Z,36.67
2023-05-03T16:11:15.347Z,36.49
2023-05-03T16:13:47.160Z,36.88
2023-05-03T16:16:19.364Z,37.25
2023-05-03T16:18:51.294Z,37.01
2023-05-03T16:21:26.085Z,37.74
2023-05-03T16:24:01.962Z,38.07
2023-05-03T16:26:34.644Z,38.26
2023-05-03T16:29:06.372Z,38.71
2023-05-03T16:31:39.476Z,39.07
2023-05-03T16:34:11.910Z,39.74
2023-05-03T16:36:44.258Z,40.04
2023-05-03T16:39:16.859Z,39.65
2023-05-03T16:41:49.051Z,40.41
2023-05-03T16:44:21.384Z,40.56
2023-05-03T16:46:53.294Z,40.41
2023-05-03T16:49:25.422Z,40.45
2023-05-03T16:51:57.889Z,40.60
2023-05-03T16:54:31.171Z,42.44
2023-05-03T16:57:02.738Z,42.51
2023-05-03T16:59:34.832Z,43.06
2023-05-03T17:02:06.654Z,42.56
2023-05-03T17:04:40.156Z,43.79
2023-05-03T17:07:12.436Z,43.77
2023-05-03T17:09:44.062Z,43.63
2023-05-03T17:12:16.208Z,44.68
2023-05-03T17:14:48.139Z,44.15
2023-05-03T17:17:20.131Z,44.31
2023-05-03T17:19:52.660Z,44.14
2023-05-03T17:22:24.790Z,44.81
2023-05-03T17:24:58.462Z,45.60
2023-05-03T17:27:30.575Z,46.17
2023-05-03T17:30:03.430Z,46.83
2023-05-03T17:32:36.783Z,48.12
2023-05-03T17:35:11.341Z,49.75
2023-05-03T17:37:43.914Z,51.82
2023-05-03T17:40:17.214Z,53.44
2023-05-03T17:42:49.664Z,54.95
2023-05-03T17:45:21.732Z,56.43
2023-05-03T17:47:53.436Z,57.57
2023-05-03T17:50:25.446Z,59.03
2023-05-03T17:52:57.711Z,59.43
2023-05-03T17:55:29.347Z,61.62
2023-05-03T17:58:02.213Z,61.97
2023-05-03T18:00:34.676Z,63.44
2023-05-03T18:03:08.306Z,64.09
2023-05-03T18:05:40.647Z,64.73
2023-05-03T18:08:15.412Z,66.91
2023-05-03T18:10:47.653Z,67.87
2023-05-03T18:13:19.653Z,69.34
2023-05-03T18:15:51.888Z,70.51
2023-05-03T18:18:24.060Z,71.35
2023-05-03T18:21:12.386Z,72.87
2023-05-03T18:23:44.570Z,73.47
2023-05-03T18:26:16.926Z,73.73
2023-05-03T18:28:48.690Z,74.51
2023-05-03T18:31:21.474Z,74.75
2023-05-03T18:33:53.722Z,75.74
2023-05-03T18:36:25.577Z,75.83
2023-05-03T18:38:57.698Z,75.80
2023-05-03T18:41:29.544Z,76.16
2023-05-03T18:44:01.930Z,76.10
2023-05-03T18:46:34.612Z,76.03
2023-05-03T18:49:07.619Z,76.38
2023-05-03T18:51:41.060Z,76.66
2023-05-03T18:54:13.567Z,76.17
2023-05-03T18:56:45.784Z,76.23
2023-05-03T18:59:18.921Z,76.79
2023-05-03T19:01:52.033Z,76.84
2023-05-03T19:04:24.647Z,77.37
2023-05-03T19:06:57.658Z,77.34
2023-05-03T19:09:29.839Z,77.46
2023-05-03T19:12:02.626Z,77.68
2023-05-03T19:14:34.916Z,77.77
2023-05-03T19:17:06.866Z,78.09
2023-05-03T19:19:38.944Z,79.02
2023-05-03T19:22:10.852Z,78.65
2023-05-03T19:24:43.997Z,78.58
2023-05-03T19:27:17.115Z,78.62
2023-05-03T19:29:55.644Z,79.09
2023-05-03T19:32:27.332Z,79.22
2023-05-03T19:35:00.157Z,78.94
2023-05-03T19:37:32.110Z,78.46
2023-05-03T19:40:04.537Z,78.44
2023-05-03T19:42:36.752Z,78.20
2023-05-03T19:45:10.311Z,77.94
2023-05-03T19:47:42.435Z,76.63
2023-05-03T19:50:14.413Z,76.00
2023-05-03T19:52:47.048Z,75.59
2023-05-03T19:55:18.837Z,75.44
2023-05-03T19:57:50.776Z,75.00
2023-05-03T20:00:26.520Z,75.00
2023-05-03T20:02:58.386Z,74.64
2023-05-03T20:05:30.118Z,74.59
2023-05-03T20:08:01.983Z,74.48
2023-05-03T20:10:35.808Z,74.40
2023-05-03T20:13:07.921Z,74.50
2023-05-03T20:15:40.005Z,74.75
2023-05-03T20:18:11.939Z,75.01
2023-05-03T20:20:43.663Z,75.22
2023-05-03T20:23:16.516Z,75.30
2023-05-03T20:25:48.291Z,75.82
2023-05-03T20:28:20.617Z,76.40
2023-05-03T20:30:52.343Z,76.69
2023-05-03T20:33:24.424Z,76.97
2023-05-03T20:35:56.303Z,77.32
2023-05-03T20:38:28.211Z,77.61
2023-05-03T20:41:01.476Z,77.81
2023-05-03T20:43:34.242Z,78.24
2023-05-03T20:46:05.975Z,78.43
2023-05-03T20:48:38.455Z,78.83
2023-05-03T20:51:10.355Z,78.98
2023-05-03T20:53:41.972Z,79.10
2023-05-03T20:56:13.647Z,79.12
2023-05-03T20:58:45.838Z,79.23
2023-05-03T21:01:18.434Z,79.30
2023-05-03T21:03:50.254Z,79.64
2023-05-03T21:06:22.111Z,79.64
2023-05-03T21:08:53.907Z,79.93
2023-05-03T21:11:25.562Z,80.56
2023-05-03T21:13:59.009Z,80.82
2023-05-03T21:16:31.356Z,80.94
2023-05-03T21:19:03.998Z,81.06
2023-05-03T21:21:35.878Z,81.29
2023-05-03T21:24:08.182Z,81.62
2023-05-03T21:26:40.159Z,81.74
2023-05-03T21:29:12.547Z,81.81
2023-05-03T21:31:44.398Z,82.03
2023-05-03T21:34:16.195Z,82.09
2023-05-03T21:36:49.055Z,82.22
2023-05-03T21:39:21.772Z,82.48
2023-05-03T21:41:53.421Z,82.72
2023-05-03T21:44:25.316Z,82.80
2023-05-03T21:46:56.991Z,82.98
2023-05-03T21:49:29.114Z,83.30
2023-05-03T21:52:00.806Z,83.42
2023-05-03T21:54:32.732Z,83.77
2023-05-03T21:57:04.637Z,84.08
2023-05-03T21:59:36.241Z,84.18
2023-05-03T22:02:08.149Z,84.35
2023-05-03T22:04:40.274Z,84.53
2023-05-03T22:07:13.801Z,84.67
2023-05-03T22:09:48.743Z,84.84
2023-05-03T22:12:24.127Z,85.11
2023-05-03T22:14:54.307Z,85.33
2023-05-03T22:17:26.329Z,85.45
2023-05-03T22:19:58.698Z,85.44
2023-05-03T22:22:30.393Z,85.67
2023-05-03T22:25:02.239Z,85.74
2023-05-03T22:27:34.072Z,86.05
2023-05-03T22:30:06.843Z,86.29
2023-05-03T22:32:38.970Z,86.45
2023-05-03T22:35:10.918Z,86.62
2023-05-03T22:37:42.895Z,86.71
2023-05-03T22:40:16.314Z,86.67
2023-05-03T22:42:48.313Z,86.85
2023-05-03T22:45:20.724Z,87.35
2023-05-03T22:47:52.622Z,87.75
2023-05-03T22:50:24.488Z,87.93
2023-05-03T22:52:56.036Z,87.85
2023-05-03T22:55:28.100Z,88.16
2023-05-03T22:57:59.814Z,88.12
2023-05-03T23:00:32.433Z,88.21
2023-05-03T23:03:04.144Z,88.19
2023-05-03T23:05:36.255Z,88.48
2023-05-03T23:08:08.271Z,88.55
2023-05-03T23:10:39.995Z,88.61
2023-05-03T23:13:11.881Z,88.86
2023-05-03T23:15:44.014Z,89.01
2023-05-03T23:18:15.883Z,89.20
2023-05-03T23:20:49.058Z,89.46
2023-05-03T23:23:21.400Z,89.87
2023-05-03T23:25:53.222Z,89.92
2023-05-03T23:28:25.822Z,89.90
2023-05-03T23:30:58.150Z,89.90
2023-05-03T23:33:41.771Z,90.38
2023-05-03T23:36:13.583Z,90.73
2023-05-03T23:38:45.208Z,91.38
2023-05-03T23:41:17.298Z,91.80
2023-05-03T23:43:49.017Z,92.21
2023-05-03T23:46:20.831Z,92.27
2023-05-03T23:48:52.725Z,92.42
2023-05-03T23:51:24.900Z,92.80
2023-05-03T23:53:56.850Z,93.09
2023-05-03T23:56:28.576Z,93.14
2023-05-03T23:59:01.839Z,93.44
